Hauptseite
METAR-TAF:

METAR-TAF

Flughäfen :

South Bend Airport

South Bend, Indiana, Vereinigte Staaten

Breite: 41-42-32N, Länge: 086-19-07W, Höhe: 244 m

Beobachtung

Neuester Wetterbericht von vor 7 Minuten, um 08:54 UTC
Wind 8 kt aus Nordwest
Temperatur 4°C
Luftfeuchtigkeit 70%
Luftdruck 1020 hPa
Sichtweite: 16.1 km
Himmel klar

METAR: KSBN 140854Z AUTO 32008KT 10SM CLR 04/M01 A3012 RMK AO2 SLP201 T00441011 53002 $

Zeit: 05:01 (09:01 UTC)

Prognose

Neuester Wetterbericht von vor 3 Stunden und 41 Minuten, um 05:20 UTC
Gültige Prognose vom 14 um 06 UTC bis 15 um 06 UTC
Wind 4 kt aus unterschiedlichen Richtungen
Sichtweite: 10 km
Aufgelockert bewölkt in der Höhe von 20000 ft
Ab 14 um 1500 UTC
Wind 11 kt aus West/Nordwest, Böen bis zu 17 kt
Sichtweite: 10 km
Aufgelockert bewölkt in der Höhe von 5000 ft

TAF: KSBN 140520Z 1406/1506 VRB04KT P6SM SCT200 FM141500 29011G17KT P6SM SCT050

Wetterbeobachtungen und Prognosen von mehr als 4000 Flughäfen (METAR und TAF Bericht).

Die verfügbaren Stationen werden durch gelbe und rote Markierungen auf der Karte dargestellt.

Führen Sie die Maus auf sie, um den Namen der Station zu sehen.

Darauf klicken, um die Beobachtung von Wetterbeobachtungen und Prognosen zu sehen.

Um die Karte zu ändern : klicken Sie auf den grünen Tasten mit einem schwarzen Kreuz Zum Vergrößern, auf den grünen Button mit einem Gedankenstrich zu verkleinern, oder auf die grünen Pfeile für benachbarte Karten.


METAR-TAF: